This is the latest recevied weather packets stored in our database for station/object SR5NLK-1. If no packets are shown the sender has not sent any weather packets the latest 10 day(s).
| Time | Temp. | Humidity | Pressure | Rain* | Wind** | Luminosity | Snow |
|---|---|---|---|---|---|---|---|
| 1787835658 | 26.11° C | 39% | 1092.7 hPa | 0 mm | - | - | - |
| 1787835657 | 26.11° C | 42% | 1062.6 hPa | 0 mm | - | - | - |
| 1787835599 | 26.11° C | 39% | 1030.7 hPa | 0 mm | - | - | - |
| 1787835299 | 26.11° C | 39% | 1084.7 hPa | 0 mm | - | - | - |
| 1787835033 | 25.56° C | 43% | 1090.9 hPa | 0 mm | - | - | - |
| 1787834999 | 25.56° C | 39% | 1058.3 hPa | 0 mm | - | - | - |
| 1787834743 | 25° C | 44% | 1062.6 hPa | 0 mm | - | - | - |
| 1787834699 | 26.11° C | 38% | 972.7 hPa | 0 mm | - | - | - |
| 1787834484 | 25° C | 44% | 1062.7 hPa | 0 mm | - | - | - |
| 1787834229 | 25° C | 44% | 1072.1 hPa | 0 mm | - | - | - |
| 1787834100 | 28.33° C | 37% | 1041.7 hPa | 0 mm | - | - | - |
| 1787833799 | 27.78° C | 37% | 1090.9 hPa | 0 mm | - | - | - |
| 1787833678 | 27.78° C | 37% | 1065.8 hPa | 0 mm | - | - | - |
| 1787833569 | 24.44° C | 45% | 1062.7 hPa | 0 mm | - | - | - |
| 1787833499 | 27.78° C | 38% | 1042.5 hPa | 0 mm | - | - | - |
| 1787833294 | 23.89° C | 45% | 1075.2 hPa | 0 mm | - | - | - |
| 1787833199 | 26.67° C | 39% | 1046.1 hPa | 0 mm | - | - | - |
| 1787832962 | 24.44° C | 45% | 1075.2 hPa | 0 mm | - | - | - |
| 1787832899 | 26.67° C | 40% | 1088.5 hPa | 0 mm | - | - | - |
| 1787832622 | 25° C | 45% | 1059.5 hPa | 0 mm | - | - | - |
| 1787832599 | 26.67° C | 40% | 1087.8 hPa | 0 mm | - | - | - |
| 1787832299 | 26.67° C | 39% | 1092.2 hPa | 0 mm | - | - | - |
| 1787832263 | 25° C | 45% | 1075.3 hPa | 0 mm | - | - | - |
| 1787831999 | 27.78° C | 38% | 1059.5 hPa | 0 mm | - | - | - |
| 1787831855 | 25° C | 45% | 1065.8 hPa | 0 mm | - | - | - |
* Rain latest hour (hover to see other rain measurements)
** Current wind speed in m/s (hover to see current wind gust speed)